createdAt,value
2018-03-07T00:02:24.663Z,1.73
2018-03-07T00:05:04.669Z,1.80
2018-03-07T00:07:43.495Z,1.80
2018-03-07T00:10:22.155Z,1.50
2018-03-07T00:13:01.735Z,2.20
2018-03-07T00:15:41.148Z,1.97
2018-03-07T00:18:19.689Z,2.77
2018-03-07T00:20:58.259Z,1.83
2018-03-07T00:23:37.733Z,1.90
2018-03-07T00:26:16.649Z,1.80
2018-03-07T00:28:54.709Z,1.40
2018-03-07T00:31:36.415Z,2.00
2018-03-07T00:34:14.921Z,1.80
2018-03-07T00:36:53.436Z,2.00
2018-03-07T00:39:32.124Z,1.67
2018-03-07T00:42:10.593Z,2.30
2018-03-07T00:44:49.835Z,1.63
2018-03-07T00:47:28.449Z,2.27
2018-03-07T00:50:07.135Z,1.97
2018-03-07T00:52:45.628Z,1.83
2018-03-07T00:55:24.071Z,1.90
2018-03-07T00:58:02.502Z,1.73
2018-03-07T01:00:42.077Z,1.50
2018-03-07T01:03:22.529Z,1.50
2018-03-07T01:05:59.933Z,1.67
2018-03-07T01:08:38.362Z,1.80
2018-03-07T01:11:16.948Z,1.50
2018-03-07T01:13:55.630Z,2.03
2018-03-07T01:16:34.204Z,1.60
2018-03-07T01:19:13.831Z,1.80
2018-03-07T01:21:52.515Z,1.40
2018-03-07T01:24:31.911Z,1.50
2018-03-07T01:27:10.327Z,1.40
2018-03-07T01:29:48.829Z,1.30
2018-03-07T01:32:27.167Z,1.50
2018-03-07T01:35:06.908Z,2.10
2018-03-07T01:37:45.488Z,1.07
2018-03-07T01:40:25.928Z,1.13
2018-03-07T01:43:04.551Z,1.27
2018-03-07T01:45:44.076Z,1.33
2018-03-07T01:48:22.430Z,1.57
2018-03-07T01:51:00.969Z,1.40
2018-03-07T01:53:40.523Z,1.47
2018-03-07T01:56:22.146Z,1.70
2018-03-07T01:59:00.755Z,1.43
2018-03-07T02:01:39.145Z,1.20
2018-03-07T02:04:17.632Z,1.67
2018-03-07T02:06:56.340Z,1.47
2018-03-07T02:09:33.714Z,1.80
2018-03-07T02:12:12.333Z,1.80
2018-03-07T02:14:51.887Z,1.50
2018-03-07T02:17:30.451Z,1.30
2018-03-07T02:20:09.644Z,1.23
2018-03-07T02:22:47.785Z,1.30
2018-03-07T02:25:28.313Z,1.50
2018-03-07T02:28:06.944Z,1.97
2018-03-07T02:30:45.471Z,1.33
2018-03-07T02:33:26.173Z,6.30
2018-03-07T02:36:04.811Z,6.97
2018-03-07T02:38:43.024Z,3.33
2018-03-07T02:41:24.773Z,2.43
2018-03-07T02:44:05.532Z,2.33
2018-03-07T02:46:45.082Z,3.50
2018-03-07T02:49:23.931Z,25.13
2018-03-07T02:52:02.471Z,3.20
2018-03-07T02:54:40.962Z,3.63
2018-03-07T02:57:19.528Z,2.10
2018-03-07T02:59:58.277Z,2.40
2018-03-07T03:02:38.106Z,2.60
2018-03-07T03:05:18.592Z,3.70
2018-03-07T03:07:57.307Z,3.70
2018-03-07T03:10:35.929Z,4.97
2018-03-07T03:13:14.570Z,3.27
2018-03-07T03:15:55.190Z,3.17
2018-03-07T03:18:33.693Z,3.10
2018-03-07T03:21:13.709Z,3.73
2018-03-07T03:23:53.478Z,2.93
2018-03-07T03:26:31.974Z,2.33
2018-03-07T03:29:10.550Z,2.45
2018-03-07T03:31:49.066Z,2.50
2018-03-07T03:34:28.624Z,3.63
2018-03-07T03:37:12.618Z,2.12
2018-03-07T03:39:51.273Z,1.80
2018-03-07T03:42:30.747Z,3.20
2018-03-07T03:45:10.556Z,3.37
2018-03-07T03:47:48.980Z,2.37
2018-03-07T03:50:31.544Z,2.77
2018-03-07T03:53:11.541Z,2.70
2018-03-07T03:55:49.828Z,2.35
2018-03-07T03:58:28.360Z,2.30
2018-03-07T04:01:07.750Z,2.35
2018-03-07T04:03:45.912Z,2.20
2018-03-07T04:06:24.576Z,1.77
2018-03-07T04:09:02.484Z,1.70
2018-03-07T04:11:42.030Z,1.70
2018-03-07T04:14:20.557Z,1.90
2018-03-07T04:16:58.976Z,1.70
2018-03-07T04:19:38.450Z,1.40
2018-03-07T04:22:17.276Z,1.70
2018-03-07T04:24:57.702Z,1.60
2018-03-07T04:27:37.404Z,1.98
2018-03-07T04:30:15.935Z,1.60
2018-03-07T04:32:54.505Z,1.60
2018-03-07T04:35:34.337Z,1.80
2018-03-07T04:38:12.338Z,1.10
2018-03-07T04:40:51.793Z,1.85
2018-03-07T04:43:33.361Z,1.70
2018-03-07T04:46:15.822Z,1.40
2018-03-07T04:48:55.211Z,1.15
2018-03-07T04:54:22.408Z,1.40
2018-03-07T04:57:00.867Z,2.20
2018-03-07T04:59:40.401Z,1.42
2018-03-07T05:02:18.758Z,1.95
2018-03-07T05:05:00.209Z,1.70
2018-03-07T05:07:38.644Z,1.62
2018-03-07T05:10:17.351Z,1.73
2018-03-07T05:12:55.807Z,1.62
2018-03-07T05:15:40.601Z,2.05
2018-03-07T05:18:22.307Z,1.70
2018-03-07T05:21:00.916Z,1.92
2018-03-07T05:23:40.438Z,1.92
2018-03-07T05:26:19.014Z,1.60
2018-03-07T05:28:57.543Z,1.70
2018-03-07T05:31:37.358Z,1.55
2018-03-07T05:34:17.000Z,1.80
2018-03-07T05:36:57.341Z,1.83
2018-03-07T05:39:37.267Z,1.50
2018-03-07T05:42:15.829Z,1.90
2018-03-07T05:44:54.391Z,1.70
2018-03-07T05:47:35.961Z,1.42
2018-03-07T05:50:14.383Z,2.10
2018-03-07T05:52:52.816Z,2.15
2018-03-07T05:55:31.308Z,2.10
2018-03-07T05:58:10.045Z,2.20
2018-03-07T06:00:49.763Z,2.05
2018-03-07T06:03:28.189Z,2.25
2018-03-07T06:06:07.592Z,1.80
2018-03-07T06:08:45.253Z,2.37
2018-03-07T06:11:23.811Z,2.50
2018-03-07T06:14:02.466Z,2.60
2018-03-07T06:16:43.237Z,2.80
2018-03-07T06:19:24.861Z,1.98
2018-03-07T06:22:03.349Z,1.98
2018-03-07T06:24:42.782Z,2.12
2018-03-07T06:27:21.374Z,2.75
2018-03-07T06:29:59.962Z,3.47
2018-03-07T06:32:38.400Z,2.40
2018-03-07T06:35:17.003Z,3.10
2018-03-07T06:37:55.580Z,3.35
2018-03-07T06:40:34.031Z,2.87
2018-03-07T06:43:12.446Z,2.92
2018-03-07T06:45:51.082Z,3.70
2018-03-07T06:48:29.636Z,3.50
2018-03-07T06:51:09.028Z,2.75
2018-03-07T06:53:48.637Z,3.28
2018-03-07T06:56:29.159Z,2.95
2018-03-07T06:59:09.679Z,2.95
2018-03-07T07:01:48.254Z,3.20
2018-03-07T07:04:26.633Z,3.40
2018-03-07T07:07:08.413Z,3.25
2018-03-07T07:09:48.768Z,3.83
2018-03-07T07:12:27.381Z,4.05
2018-03-07T07:15:05.768Z,3.45
2018-03-07T07:17:44.261Z,3.70
2018-03-07T07:20:22.806Z,3.90
2018-03-07T07:23:02.496Z,3.80
2018-03-07T07:25:42.986Z,4.03
2018-03-07T07:28:21.319Z,4.97
2018-03-07T07:31:00.703Z,4.30
2018-03-07T07:33:41.535Z,4.55
2018-03-07T07:36:21.129Z,4.65
2018-03-07T07:38:59.416Z,5.05
2018-03-07T07:41:37.996Z,4.93
2018-03-07T07:44:17.409Z,4.60
2018-03-07T07:46:55.840Z,4.70
2018-03-07T07:49:34.258Z,5.28
2018-03-07T07:52:13.663Z,5.05
2018-03-07T07:54:52.144Z,5.53
2018-03-07T07:57:32.636Z,5.40
2018-03-07T08:00:11.250Z,4.55
2018-03-07T08:02:49.881Z,4.93
2018-03-07T08:05:28.503Z,5.20
2018-03-07T08:08:08.151Z,4.60
2018-03-07T08:10:47.913Z,4.72
2018-03-07T08:13:26.630Z,4.72
2018-03-07T08:16:04.924Z,5.80
2018-03-07T08:18:43.564Z,5.45
2018-03-07T08:21:23.055Z,4.60
2018-03-07T08:24:01.474Z,5.32
2018-03-07T08:26:41.075Z,4.40
2018-03-07T08:29:19.612Z,5.53
2018-03-07T08:31:58.156Z,7.12
2018-03-07T08:34:36.752Z,5.72
2018-03-07T08:37:16.306Z,5.87
2018-03-07T08:39:55.069Z,5.80
2018-03-07T08:42:36.898Z,4.97
2018-03-07T08:45:18.333Z,5.35
2018-03-07T08:47:57.957Z,5.40
2018-03-07T08:50:36.467Z,4.60
2018-03-07T08:53:15.055Z,5.10
2018-03-07T08:55:53.529Z,4.97
2018-03-07T08:58:32.272Z,5.47
2018-03-07T09:01:11.892Z,5.07
2018-03-07T09:03:51.468Z,7.25
2018-03-07T09:06:31.145Z,6.55
2018-03-07T09:09:09.707Z,6.25
2018-03-07T09:11:48.443Z,6.75
2018-03-07T09:14:28.012Z,5.85
2018-03-07T09:17:05.694Z,5.72
2018-03-07T09:19:44.151Z,5.00
2018-03-07T09:22:24.509Z,5.15
2018-03-07T09:25:03.372Z,4.90
2018-03-07T09:27:42.673Z,5.00
2018-03-07T09:30:21.126Z,4.90
2018-03-07T09:32:59.690Z,4.80
2018-03-07T09:35:38.118Z,5.65
2018-03-07T09:38:16.802Z,5.43
2018-03-07T09:40:56.361Z,5.87
2018-03-07T09:43:34.979Z,5.03
2018-03-07T09:46:14.419Z,5.57
2018-03-07T09:48:52.924Z,5.90
2018-03-07T09:51:31.548Z,5.15
2018-03-07T09:54:10.109Z,5.68
2018-03-07T09:56:49.704Z,5.53
2018-03-07T09:59:30.421Z,5.95
2018-03-07T10:02:11.521Z,5.37
2018-03-07T10:04:49.625Z,5.35
2018-03-07T10:07:29.031Z,5.55
2018-03-07T10:10:09.588Z,5.37
2018-03-07T10:12:47.984Z,5.05
2018-03-07T10:15:28.560Z,5.35
2018-03-07T10:18:08.893Z,5.07
2018-03-07T10:20:47.383Z,5.43
2018-03-07T10:23:28.828Z,5.75
2018-03-07T10:26:07.259Z,5.43
2018-03-07T10:28:46.024Z,4.60
2018-03-07T10:31:24.303Z,4.37
2018-03-07T10:34:02.866Z,4.97
2018-03-07T10:36:42.512Z,4.85
2018-03-07T10:39:21.234Z,4.70
2018-03-07T10:41:59.783Z,4.30
2018-03-07T10:44:38.335Z,4.72
2018-03-07T10:47:16.899Z,4.32
2018-03-07T10:49:56.517Z,4.60
2018-03-07T10:52:36.230Z,4.45
2018-03-07T10:55:13.752Z,4.20
2018-03-07T10:57:52.192Z,4.40
2018-03-07T11:00:36.737Z,4.97
2018-03-07T11:03:15.331Z,4.87
2018-03-07T11:05:56.061Z,4.97
2018-03-07T11:08:34.512Z,5.00
2018-03-07T11:11:13.372Z,4.47
2018-03-07T11:13:50.875Z,4.75
2018-03-07T11:16:29.395Z,4.45
2018-03-07T11:19:07.874Z,4.03
2018-03-07T11:21:46.427Z,4.75
2018-03-07T11:24:26.061Z,4.55
2018-03-07T11:27:04.579Z,4.55
2018-03-07T11:29:44.136Z,4.87
2018-03-07T11:32:22.629Z,5.00
2018-03-07T11:35:01.259Z,4.90
2018-03-07T11:37:39.738Z,6.90
2018-03-07T11:40:19.231Z,6.60
2018-03-07T11:42:58.903Z,5.70
2018-03-07T11:45:37.452Z,5.30
2018-03-07T11:48:16.115Z,4.82
2018-03-07T11:50:54.719Z,4.80
2018-03-07T11:53:33.102Z,4.50
2018-03-07T11:56:13.152Z,5.05
2018-03-07T11:58:51.244Z,4.85
2018-03-07T12:01:30.886Z,5.50
2018-03-07T12:04:10.286Z,5.07
2018-03-07T12:06:48.816Z,5.70
2018-03-07T12:09:27.361Z,5.20
2018-03-07T12:12:05.897Z,5.40
2018-03-07T12:14:44.419Z,5.85
2018-03-07T12:17:22.852Z,5.18
2018-03-07T12:20:02.471Z,5.62
2018-03-07T12:22:41.010Z,6.30
2018-03-07T12:25:20.581Z,5.72
2018-03-07T12:28:01.152Z,5.70
2018-03-07T12:30:41.648Z,5.45
2018-03-07T12:33:20.190Z,6.03
2018-03-07T12:35:58.863Z,6.25
2018-03-07T12:38:37.498Z,7.60
2018-03-07T12:41:15.723Z,6.75
2018-03-07T12:43:54.273Z,6.85
2018-03-07T12:46:32.638Z,7.28
2018-03-07T12:49:10.437Z,8.85
2018-03-07T12:51:48.979Z,7.32
2018-03-07T12:54:27.481Z,5.87
2018-03-07T12:57:06.063Z,6.07
2018-03-07T12:59:45.455Z,6.35
2018-03-07T13:02:24.090Z,5.43
2018-03-07T13:05:02.410Z,6.12
2018-03-07T13:07:40.876Z,6.78
2018-03-07T13:10:19.421Z,6.43
2018-03-07T13:12:58.009Z,7.07
2018-03-07T13:15:36.475Z,6.53
2018-03-07T13:18:15.854Z,5.60
2018-03-07T13:20:54.371Z,5.97
2018-03-07T13:23:32.842Z,6.57
2018-03-07T13:26:12.503Z,5.47
2018-03-07T13:28:51.148Z,6.40
2018-03-07T13:31:32.071Z,5.93
2018-03-07T13:34:10.351Z,6.35
2018-03-07T13:36:48.691Z,6.10
2018-03-07T13:39:29.296Z,7.45
2018-03-07T13:42:07.689Z,6.22
2018-03-07T13:44:47.161Z,6.28
2018-03-07T13:47:26.741Z,6.00
2018-03-07T13:50:07.050Z,6.12
2018-03-07T13:52:47.141Z,5.80
2018-03-07T13:55:25.764Z,5.70
2018-03-07T13:58:04.439Z,6.10
2018-03-07T14:00:42.859Z,5.62
2018-03-07T14:03:21.503Z,5.55
2018-03-07T14:05:59.895Z,6.10
2018-03-07T14:08:38.427Z,5.93
2018-03-07T14:11:17.683Z,6.45
2018-03-07T14:13:56.686Z,6.90
2018-03-07T14:16:35.179Z,7.68
2018-03-07T14:19:13.783Z,8.68
2018-03-07T14:21:52.396Z,7.30
2018-03-07T14:24:31.023Z,7.40
2018-03-07T14:27:09.583Z,8.00
2018-03-07T14:29:48.279Z,7.80
2018-03-07T14:32:27.851Z,7.90
2018-03-07T14:35:08.487Z,7.68
2018-03-07T14:37:47.121Z,8.05
2018-03-07T14:40:25.701Z,7.00
2018-03-07T14:43:04.633Z,7.12
2018-03-07T14:45:43.256Z,7.07
2018-03-07T14:48:21.788Z,6.55
2018-03-07T14:51:00.259Z,6.40
2018-03-07T14:53:38.722Z,7.35
2018-03-07T14:56:17.189Z,7.35
2018-03-07T14:58:55.960Z,12.10
2018-03-07T15:01:34.569Z,9.18
2018-03-07T15:04:14.148Z,9.98
2018-03-07T15:06:52.748Z,9.07
2018-03-07T15:09:32.129Z,8.35
2018-03-07T15:12:10.687Z,9.60
2018-03-07T15:14:48.319Z,8.88
2018-03-07T15:17:26.789Z,8.35
2018-03-07T15:20:05.629Z,8.18
2018-03-07T15:22:45.206Z,7.78
2018-03-07T15:25:23.828Z,8.10
2018-03-07T15:28:02.633Z,8.60
2018-03-07T15:30:42.253Z,8.50
2018-03-07T15:33:20.519Z,8.10
2018-03-07T15:35:59.154Z,7.25
2018-03-07T15:38:37.727Z,8.82
2018-03-07T15:41:18.150Z,7.97
2018-03-07T15:43:56.732Z,8.30
2018-03-07T15:46:35.367Z,8.40
2018-03-07T15:49:15.065Z,8.30
2018-03-07T15:51:54.774Z,8.15
2018-03-07T15:54:35.386Z,7.95
2018-03-07T15:57:13.887Z,7.70
2018-03-07T15:59:53.348Z,7.72
2018-03-07T16:02:31.713Z,9.55
2018-03-07T16:05:12.249Z,9.55
2018-03-07T16:07:50.856Z,10.15
2018-03-07T16:10:28.146Z,9.40
2018-03-07T16:13:07.020Z,8.98
2018-03-07T16:15:45.760Z,8.05
2018-03-07T16:18:24.628Z,8.45
2018-03-07T16:21:03.183Z,7.47
2018-03-07T16:23:40.721Z,6.68
2018-03-07T16:26:20.356Z,6.45
2018-03-07T16:28:59.050Z,5.65
2018-03-07T16:31:38.976Z,5.70
2018-03-07T16:34:18.292Z,5.80
2018-03-07T16:36:56.800Z,6.90
2018-03-07T16:39:35.702Z,6.00
2018-03-07T16:42:14.116Z,5.77
2018-03-07T16:44:51.811Z,4.90
2018-03-07T16:47:30.290Z,5.50
2018-03-07T16:50:08.755Z,5.37
2018-03-07T16:52:47.220Z,6.00
2018-03-07T16:55:25.766Z,4.90
2018-03-07T16:58:04.317Z,6.00
2018-03-07T17:00:43.952Z,5.90
2018-03-07T17:03:22.462Z,5.10
2018-03-07T17:06:04.069Z,6.00
2018-03-07T17:08:43.672Z,5.33
2018-03-07T17:11:23.189Z,6.77
2018-03-07T17:14:00.716Z,6.90
2018-03-07T17:16:41.328Z,6.33
2018-03-07T17:19:19.906Z,5.87
2018-03-07T17:21:58.464Z,5.87
2018-03-07T17:24:37.369Z,7.27
2018-03-07T17:27:15.987Z,6.67
2018-03-07T17:29:54.627Z,6.27
2018-03-07T17:32:33.140Z,6.23
2018-03-07T17:35:11.587Z,6.50
2018-03-07T17:37:51.231Z,7.07
2018-03-07T17:40:30.810Z,6.20
2018-03-07T17:43:09.586Z,6.93
2018-03-07T17:45:48.000Z,6.80
2018-03-07T17:48:28.698Z,6.17
2018-03-07T17:51:07.366Z,6.77
2018-03-07T17:53:46.650Z,6.00
2018-03-07T17:56:25.550Z,6.27
2018-03-07T17:59:04.979Z,4.67
2018-03-07T18:01:43.367Z,5.50
2018-03-07T18:04:23.032Z,5.60
2018-03-07T18:07:01.772Z,6.67
2018-03-07T18:09:40.159Z,5.30
2018-03-07T18:12:18.705Z,5.87
2018-03-07T18:14:57.964Z,5.20
2018-03-07T18:17:36.199Z,5.33
2018-03-07T18:20:14.738Z,5.00
2018-03-07T18:22:53.264Z,4.83
2018-03-07T18:25:30.975Z,4.83
2018-03-07T18:28:10.586Z,4.83
2018-03-07T18:30:50.111Z,4.20
2018-03-07T18:33:28.636Z,4.80
2018-03-07T18:36:07.103Z,4.70
2018-03-07T18:38:45.486Z,4.70
2018-03-07T18:41:24.995Z,4.00
2018-03-07T18:44:03.911Z,4.90
2018-03-07T18:46:42.183Z,4.30
2018-03-07T18:49:21.787Z,3.50
2018-03-07T18:52:04.499Z,4.47
2018-03-07T18:54:44.771Z,4.03
2018-03-07T18:57:23.823Z,3.63
2018-03-07T19:00:03.238Z,4.17
2018-03-07T19:02:42.804Z,5.40
2018-03-07T19:05:22.347Z,5.10
2018-03-07T19:08:00.971Z,5.57
2018-03-07T19:10:39.509Z,5.60
2018-03-07T19:13:19.090Z,5.50
2018-03-07T19:16:03.601Z,5.87
2018-03-07T19:18:43.290Z,6.20
2018-03-07T19:21:21.927Z,5.03
2018-03-07T19:24:00.607Z,5.07
2018-03-07T19:26:39.138Z,4.20
2018-03-07T19:29:18.108Z,3.20
2018-03-07T19:31:56.597Z,2.10
2018-03-07T19:34:36.062Z,2.83
2018-03-07T19:37:15.609Z,3.27
2018-03-07T19:39:54.410Z,2.90
2018-03-07T19:42:34.776Z,2.87
2018-03-07T19:45:13.634Z,2.63
2018-03-07T19:47:53.950Z,3.23
2018-03-07T19:50:34.397Z,3.77
2018-03-07T19:53:13.339Z,3.30
2018-03-07T19:55:51.841Z,3.60
2018-03-07T19:58:30.402Z,4.00
2018-03-07T20:01:10.195Z,4.30
2018-03-07T20:03:48.935Z,4.37
2018-03-07T20:06:30.437Z,3.80
2018-03-07T20:09:08.886Z,2.90
2018-03-07T20:11:47.320Z,2.27
2018-03-07T20:14:25.970Z,2.60
2018-03-07T20:17:04.727Z,2.77
2018-03-07T20:19:43.410Z,2.43
2018-03-07T20:22:22.023Z,2.27
2018-03-07T20:25:00.449Z,2.70
2018-03-07T20:27:38.943Z,2.43
2018-03-07T20:30:18.487Z,2.37
2018-03-07T20:32:58.127Z,3.00
2018-03-07T20:35:36.566Z,2.00
2018-03-07T20:38:15.570Z,2.43
2018-03-07T20:40:54.738Z,2.30
2018-03-07T20:43:34.314Z,2.60
2018-03-07T20:46:13.067Z,2.20
2018-03-07T20:48:51.625Z,2.23
2018-03-07T20:51:30.101Z,2.60
2018-03-07T20:54:07.735Z,2.90
2018-03-07T20:56:47.526Z,2.17
2018-03-07T20:59:26.122Z,2.23
2018-03-07T21:02:05.204Z,1.90
2018-03-07T21:04:44.245Z,1.97
2018-03-07T21:07:25.022Z,2.27
2018-03-07T21:10:03.383Z,2.47
2018-03-07T21:12:42.833Z,1.93
2018-03-07T21:15:21.360Z,2.10
2018-03-07T21:18:01.404Z,2.50
2018-03-07T21:20:40.504Z,2.00
2018-03-07T21:23:20.028Z,2.60
2018-03-07T21:25:58.474Z,2.37
2018-03-07T21:28:38.161Z,1.70
2018-03-07T21:31:16.725Z,2.73
2018-03-07T21:33:56.372Z,2.20
2018-03-07T21:36:36.926Z,2.07
2018-03-07T21:39:15.496Z,2.30
2018-03-07T21:41:55.196Z,1.90
2018-03-07T21:44:34.714Z,2.20
2018-03-07T21:47:13.246Z,2.00
2018-03-07T21:49:51.776Z,1.97
2018-03-07T21:52:30.408Z,2.00
2018-03-07T21:55:09.302Z,1.90
2018-03-07T21:57:47.516Z,2.40
2018-03-07T22:00:26.143Z,1.67
2018-03-07T22:03:04.553Z,1.57
2018-03-07T22:05:43.206Z,1.93
2018-03-07T22:08:20.634Z,1.57
2018-03-07T22:10:59.072Z,1.83
2018-03-07T22:13:38.287Z,1.87
2018-03-07T22:16:17.142Z,1.70
2018-03-07T22:18:55.748Z,1.97
2018-03-07T22:21:34.304Z,1.83
2018-03-07T22:24:12.871Z,1.83
2018-03-07T22:26:51.422Z,2.20
2018-03-07T22:29:30.052Z,1.97
2018-03-07T22:32:08.707Z,2.07
2018-03-07T22:34:48.210Z,1.93
2018-03-07T22:37:29.813Z,2.00
2018-03-07T22:40:10.343Z,1.70
2018-03-07T22:42:49.857Z,2.03
2018-03-07T22:45:30.388Z,2.50
2018-03-07T22:48:10.330Z,2.00
2018-03-07T22:50:48.720Z,2.10
2018-03-07T22:53:28.500Z,1.77
2018-03-07T22:56:07.960Z,2.10
2018-03-07T22:58:46.368Z,1.90
2018-03-07T23:01:26.790Z,2.20
2018-03-07T23:04:07.613Z,2.10
2018-03-07T23:06:50.683Z,2.10
2018-03-07T23:09:33.286Z,2.07
2018-03-07T23:12:12.230Z,1.83
2018-03-07T23:14:50.723Z,2.03
2018-03-07T23:17:27.157Z,2.20
2018-03-07T23:20:06.374Z,2.27
2018-03-07T23:22:47.154Z,1.97
2018-03-07T23:25:25.763Z,2.00
2018-03-07T23:28:04.664Z,2.60
2018-03-07T23:30:43.078Z,2.07
2018-03-07T23:33:21.677Z,1.93
2018-03-07T23:36:00.162Z,1.73
2018-03-07T23:38:39.599Z,1.70
2018-03-07T23:41:18.078Z,1.70
2018-03-07T23:43:56.550Z,2.00
2018-03-07T23:46:37.168Z,2.03
2018-03-07T23:49:16.874Z,2.00
2018-03-07T23:51:55.291Z,1.93
2018-03-07T23:54:34.794Z,2.10
2018-03-07T23:57:13.413Z,1.93
2018-03-07T23:59:52.125Z,1.70
